createdAt,value
2023-03-02T00:00:01.840Z,101282.62
2023-03-02T00:02:29.103Z,101279.44
2023-03-02T00:04:55.450Z,101281.09
2023-03-02T00:07:21.742Z,101269.78
2023-03-02T00:09:48.057Z,101270.63
2023-03-02T00:12:14.398Z,101258.50
2023-03-02T00:14:40.825Z,101259.56
2023-03-02T00:17:08.126Z,101264.91
2023-03-02T00:19:34.594Z,101265.75
2023-03-02T00:22:00.968Z,101261.81
2023-03-02T00:24:27.293Z,101272.84
2023-03-02T00:26:53.653Z,101261.84
2023-03-02T00:29:19.989Z,101258.00
2023-03-02T00:31:46.453Z,101267.87
2023-03-02T00:34:12.794Z,101256.38
2023-03-02T00:36:39.146Z,101257.37
2023-03-02T00:39:05.726Z,101249.22
2023-03-02T00:41:32.059Z,101256.63
2023-03-02T00:43:58.356Z,101255.53
2023-03-02T00:46:24.704Z,101249.94
2023-03-02T00:48:51.059Z,101250.44
2023-03-02T00:51:17.817Z,101236.06
2023-03-02T00:53:44.148Z,101241.09
2023-03-02T00:56:10.465Z,101248.03
2023-03-02T00:58:36.815Z,101231.75
2023-03-02T01:01:03.150Z,101235.34
2023-03-02T01:03:29.566Z,101240.22
2023-03-02T01:05:56.441Z,101230.81
2023-03-02T01:08:22.987Z,101229.97
2023-03-02T01:10:49.345Z,101228.88
2023-03-02T01:13:15.729Z,101231.16
2023-03-02T01:15:42.024Z,101218.19
2023-03-02T01:18:08.321Z,101210.19
2023-03-02T01:20:34.639Z,101224.09
2023-03-02T01:23:00.991Z,101223.28
2023-03-02T01:25:27.299Z,101210.19
2023-03-02T01:27:53.607Z,101204.19
2023-03-02T01:30:19.927Z,101221.19
2023-03-02T01:32:46.285Z,101223.09
2023-03-02T01:35:12.634Z,101220.47
2023-03-02T01:37:38.929Z,101222.72
2023-03-02T01:40:06.853Z,101214.50
2023-03-02T01:42:33.182Z,101217.31
2023-03-02T01:44:59.594Z,101208.19
2023-03-02T01:47:25.929Z,101196.94
2023-03-02T01:49:52.313Z,101208.31
2023-03-02T01:52:18.644Z,101202.84
2023-03-02T01:54:45.006Z,101201.50
2023-03-02T01:57:11.399Z,101190.81
2023-03-02T01:59:37.710Z,101199.22
2023-03-02T02:02:04.046Z,101201.12
2023-03-02T02:04:30.378Z,101200.44
2023-03-02T02:06:56.690Z,101195.78
2023-03-02T02:09:23.025Z,101194.56
2023-03-02T02:11:49.375Z,101190.75
2023-03-02T02:14:15.767Z,101185.22
2023-03-02T02:16:42.099Z,101188.78
2023-03-02T02:19:08.499Z,101184.38
2023-03-02T02:21:34.837Z,101191.91
2023-03-02T02:24:01.160Z,101191.28
2023-03-02T02:26:27.525Z,101188.53
2023-03-02T02:28:57.738Z,101187.56
2023-03-02T02:31:26.797Z,101191.41
2023-03-02T02:33:53.291Z,101194.38
2023-03-02T02:36:19.676Z,101181.09
2023-03-02T02:38:47.990Z,101176.81
2023-03-02T02:41:14.358Z,101180.31
2023-03-02T02:43:40.708Z,101181.00
2023-03-02T02:46:07.090Z,101171.34
2023-03-02T02:48:33.481Z,101169.31
2023-03-02T02:51:03.397Z,101164.78
2023-03-02T02:53:29.778Z,101181.12
2023-03-02T02:55:56.082Z,101181.22
2023-03-02T02:58:22.411Z,101169.06
2023-03-02T03:00:48.761Z,101167.56
2023-03-02T03:03:29.360Z,101168.03
2023-03-02T03:05:55.718Z,101163.03
2023-03-02T03:08:22.018Z,101161.56
2023-03-02T03:10:48.383Z,101160.16
2023-03-02T03:13:14.749Z,101155.75
2023-03-02T03:15:41.151Z,101162.75
2023-03-02T03:18:07.457Z,101157.34
2023-03-02T03:20:33.755Z,101161.91
2023-03-02T03:23:00.892Z,101167.56
2023-03-02T03:25:27.235Z,101165.53
2023-03-02T03:27:53.560Z,101168.87
2023-03-02T03:30:19.870Z,101167.44
2023-03-02T03:32:46.185Z,101161.97
2023-03-02T03:35:12.922Z,101157.00
2023-03-02T03:37:39.253Z,101161.25
2023-03-02T03:40:06.213Z,101151.53
2023-03-02T03:42:32.710Z,101158.66
2023-03-02T03:44:59.030Z,101151.28
2023-03-02T03:47:25.336Z,101163.72
2023-03-02T03:49:51.662Z,101161.97
2023-03-02T03:52:17.986Z,101158.22
2023-03-02T03:54:44.305Z,101162.13
2023-03-02T03:57:12.227Z,101158.09
2023-03-02T03:59:38.562Z,101165.22
2023-03-02T04:02:04.888Z,101172.97
2023-03-02T04:04:31.214Z,101171.84
2023-03-02T04:06:57.533Z,101168.75
2023-03-02T04:09:23.912Z,101169.28
2023-03-02T04:11:50.238Z,101170.25
2023-03-02T04:14:16.551Z,101162.16
2023-03-02T04:16:42.960Z,101164.12
2023-03-02T04:19:09.724Z,101161.63
2023-03-02T04:21:36.070Z,101171.38
2023-03-02T04:24:02.364Z,101158.81
2023-03-02T04:26:28.702Z,101162.75
2023-03-02T04:28:55.006Z,101165.03
2023-03-02T04:31:21.398Z,101154.31
2023-03-02T04:33:47.723Z,101151.84
2023-03-02T04:36:14.067Z,101154.31
2023-03-02T04:38:40.410Z,101162.75
2023-03-02T04:41:06.736Z,101155.63
2023-03-02T04:43:33.053Z,101173.59
2023-03-02T04:45:59.385Z,101161.66
2023-03-02T04:48:25.859Z,101163.50
2023-03-02T04:50:52.205Z,101154.25
2023-03-02T04:53:18.544Z,101173.28
2023-03-02T04:55:44.914Z,101165.78
2023-03-02T04:58:11.235Z,101168.94
2023-03-02T05:00:37.749Z,101162.19
2023-03-02T05:03:04.137Z,101169.19
2023-03-02T05:05:30.451Z,101165.59
2023-03-02T05:07:58.586Z,101161.75
2023-03-02T05:10:25.121Z,101159.03
2023-03-02T05:12:54.887Z,101154.53
2023-03-02T05:15:21.234Z,101154.38
2023-03-02T05:17:47.541Z,101157.25
2023-03-02T05:20:13.885Z,101156.81
2023-03-02T05:22:40.202Z,101151.38
2023-03-02T05:25:06.562Z,101148.03
2023-03-02T05:27:32.886Z,101154.38
2023-03-02T05:29:59.250Z,101142.63
2023-03-02T05:32:25.582Z,101146.03
2023-03-02T05:34:51.966Z,101139.50
2023-03-02T05:37:18.540Z,101148.47
2023-03-02T05:39:44.920Z,101144.25
2023-03-02T05:42:11.224Z,101151.22
2023-03-02T05:44:37.525Z,101153.03
2023-03-02T05:47:03.887Z,101137.97
2023-03-02T05:49:30.186Z,101145.34
2023-03-02T05:51:56.598Z,101147.03
2023-03-02T05:54:22.910Z,101150.09
2023-03-02T05:56:50.340Z,101151.81
2023-03-02T05:59:16.751Z,101155.41
2023-03-02T06:01:43.185Z,101153.25
2023-03-02T06:04:09.531Z,101149.31
2023-03-02T06:06:36.187Z,101151.81
2023-03-02T06:09:02.673Z,101149.31
2023-03-02T06:11:30.328Z,101156.00
2023-03-02T06:13:56.645Z,101158.44
2023-03-02T06:16:23.013Z,101152.97
2023-03-02T06:18:49.374Z,101163.25
2023-03-02T06:21:15.738Z,101171.16
2023-03-02T06:23:42.032Z,101164.94
2023-03-02T06:26:08.378Z,101168.28
2023-03-02T06:28:49.822Z,101170.09
2023-03-02T06:31:18.184Z,101167.28
2023-03-02T06:33:44.524Z,101170.78
2023-03-02T06:36:12.733Z,101172.84
2023-03-02T06:38:39.278Z,101166.00
2023-03-02T06:41:05.597Z,101177.22
2023-03-02T06:43:31.896Z,101178.88
2023-03-02T06:46:00.900Z,101171.53
2023-03-02T06:48:27.337Z,101166.44
2023-03-02T06:50:53.651Z,101169.03
2023-03-02T06:53:22.905Z,101158.16
2023-03-02T06:55:49.269Z,101159.56
2023-03-02T06:58:15.633Z,101151.63
2023-03-02T07:00:41.936Z,101153.59
2023-03-02T07:03:08.271Z,101147.75
2023-03-02T07:05:35.933Z,101154.75
2023-03-02T07:08:02.225Z,101157.19
2023-03-02T07:10:28.970Z,101154.47
2023-03-02T07:12:55.321Z,101152.31
2023-03-02T07:15:22.180Z,101145.56
2023-03-02T07:17:48.471Z,101149.63
2023-03-02T07:20:14.810Z,101159.97
2023-03-02T07:22:41.173Z,101150.75
2023-03-02T07:25:07.481Z,101147.38
2023-03-02T07:27:33.869Z,101148.03
2023-03-02T07:30:00.200Z,101151.41
2023-03-02T07:32:26.572Z,101148.91
2023-03-02T07:34:52.991Z,101149.37
2023-03-02T07:37:19.279Z,101145.13
2023-03-02T07:39:45.581Z,101157.06
2023-03-02T07:42:11.921Z,101146.22
2023-03-02T07:44:38.244Z,101143.81
2023-03-02T07:47:04.607Z,101143.25
2023-03-02T07:49:31.052Z,101143.06
2023-03-02T07:51:57.368Z,101144.09
2023-03-02T07:54:26.573Z,101146.84
2023-03-02T07:56:52.891Z,101151.91
2023-03-02T07:59:19.222Z,101137.19
2023-03-02T08:01:45.624Z,101141.19
2023-03-02T08:04:11.948Z,101154.09
2023-03-02T08:06:38.258Z,101139.63
2023-03-02T08:09:04.626Z,101150.00
2023-03-02T08:11:31.270Z,101144.44
2023-03-02T08:13:57.877Z,101148.87
2023-03-02T08:16:26.481Z,101148.97
2023-03-02T08:18:52.883Z,101148.34
2023-03-02T08:21:19.347Z,101151.34
2023-03-02T08:23:45.782Z,101146.97
2023-03-02T08:26:14.248Z,101155.03
2023-03-02T08:28:42.093Z,101152.37
2023-03-02T08:31:08.438Z,101151.31
2023-03-02T08:33:34.939Z,101151.19
2023-03-02T08:36:01.327Z,101156.78
2023-03-02T08:38:27.733Z,101158.38
2023-03-02T08:40:54.063Z,101148.31
2023-03-02T08:43:20.477Z,101148.44
2023-03-02T08:45:46.833Z,101144.38
2023-03-02T08:48:13.170Z,101148.19
2023-03-02T08:50:39.493Z,101141.56
2023-03-02T08:53:05.796Z,101139.09
2023-03-02T08:55:32.151Z,101138.06
2023-03-02T08:57:58.470Z,101127.19
2023-03-02T09:00:24.775Z,101137.81
2023-03-02T09:02:51.089Z,101122.72
2023-03-02T09:05:17.413Z,101127.44
2023-03-02T09:07:43.738Z,101119.94
2023-03-02T09:10:10.056Z,101117.69
2023-03-02T09:12:36.387Z,101109.47
2023-03-02T09:15:02.785Z,101106.72
2023-03-02T09:17:29.152Z,101111.25
2023-03-02T09:19:55.517Z,101108.91
2023-03-02T09:22:21.817Z,101112.16
2023-03-02T09:24:48.132Z,101102.56
2023-03-02T09:27:14.440Z,101093.09
2023-03-02T09:29:40.828Z,101101.09
2023-03-02T09:32:07.279Z,101100.66
2023-03-02T09:34:33.757Z,101102.50
2023-03-02T09:37:00.112Z,101103.19
2023-03-02T09:39:26.461Z,101106.91
2023-03-02T09:41:52.762Z,101104.06
2023-03-02T09:44:19.110Z,101098.88
2023-03-02T09:46:45.454Z,101101.91
2023-03-02T09:49:11.809Z,101099.50
2023-03-02T09:51:39.349Z,101096.12
2023-03-02T09:54:05.726Z,101095.50
2023-03-02T09:56:32.382Z,101092.47
2023-03-02T09:58:58.916Z,101096.41
2023-03-02T10:01:25.243Z,101085.69
2023-03-02T10:03:51.724Z,101090.41
2023-03-02T10:06:18.148Z,101087.75
2023-03-02T10:08:44.615Z,101082.03
2023-03-02T10:11:10.950Z,101085.81
2023-03-02T10:13:37.321Z,101081.78
2023-03-02T10:16:03.770Z,101077.31
2023-03-02T10:18:30.172Z,101075.53
2023-03-02T10:20:56.577Z,101067.06
2023-03-02T10:23:22.963Z,101070.00
2023-03-02T10:25:49.271Z,101072.16
2023-03-02T10:28:15.597Z,101056.81
2023-03-02T10:30:42.063Z,101046.81
2023-03-02T10:33:08.400Z,101054.97
2023-03-02T10:35:34.767Z,101061.44
2023-03-02T10:38:01.133Z,101050.00
2023-03-02T10:40:27.462Z,101046.06
2023-03-02T10:42:53.757Z,101046.63
2023-03-02T10:45:20.048Z,101044.28
2023-03-02T10:47:46.367Z,101030.59
2023-03-02T10:50:12.689Z,101038.16
2023-03-02T10:52:41.051Z,101028.19
2023-03-02T10:55:08.760Z,101042.53
2023-03-02T10:57:35.072Z,101032.53
2023-03-02T11:00:01.511Z,101040.25
2023-03-02T11:02:28.359Z,101035.28
2023-03-02T11:04:57.355Z,101025.50
2023-03-02T11:07:23.989Z,101021.88
2023-03-02T11:09:50.292Z,101021.66
2023-03-02T11:12:16.831Z,101013.94
2023-03-02T11:14:43.470Z,101009.00
2023-03-02T11:17:09.791Z,101002.91
2023-03-02T11:19:36.371Z,100996.63
2023-03-02T11:22:02.695Z,100992.03
2023-03-02T11:24:28.997Z,100984.16
2023-03-02T11:26:55.331Z,100988.50
2023-03-02T11:29:22.754Z,100981.12
2023-03-02T11:31:49.307Z,100983.72
2023-03-02T11:34:17.951Z,100966.84
2023-03-02T11:36:44.774Z,100970.44
2023-03-02T11:39:11.111Z,100965.81
2023-03-02T11:41:37.456Z,100972.09
2023-03-02T11:44:03.825Z,100956.97
2023-03-02T11:46:33.778Z,100957.19
2023-03-02T11:49:00.245Z,100960.94
2023-03-02T11:51:26.585Z,100957.34
2023-03-02T11:53:53.057Z,100946.19
2023-03-02T11:56:19.479Z,100951.19
2023-03-02T11:58:45.795Z,100945.59
2023-03-02T12:01:12.124Z,100950.13
2023-03-02T12:03:38.595Z,100934.63
2023-03-02T12:06:06.696Z,100938.37
2023-03-02T12:08:33.533Z,100933.56
2023-03-02T12:10:59.840Z,100931.25
2023-03-02T12:13:26.254Z,100926.00
2023-03-02T12:15:52.630Z,100925.88
2023-03-02T12:18:18.993Z,100935.72
2023-03-02T12:20:45.355Z,100922.94
2023-03-02T12:23:11.739Z,100924.22
2023-03-02T12:25:38.083Z,100921.37
2023-03-02T12:28:04.516Z,100918.06
2023-03-02T12:30:31.724Z,100917.34
2023-03-02T12:32:58.033Z,100924.13
2023-03-02T12:35:24.394Z,100913.47
2023-03-02T12:37:51.934Z,100907.87
2023-03-02T12:40:18.260Z,100912.88
2023-03-02T12:42:44.596Z,100902.09
2023-03-02T12:45:10.927Z,100908.69
2023-03-02T12:47:37.306Z,100903.50
2023-03-02T12:50:03.644Z,100902.78
2023-03-02T12:52:30.065Z,100894.06
2023-03-02T12:54:56.406Z,100902.34
2023-03-02T12:57:22.720Z,100898.34
2023-03-02T12:59:49.095Z,100884.91
2023-03-02T13:02:15.476Z,100883.44
2023-03-02T13:04:41.807Z,100879.00
2023-03-02T13:07:08.188Z,100883.38
2023-03-02T13:09:34.967Z,100875.19
2023-03-02T13:12:02.237Z,100871.19
2023-03-02T13:14:28.569Z,100868.00
2023-03-02T13:16:54.964Z,100872.53
2023-03-02T13:19:21.306Z,100873.22
2023-03-02T13:21:47.672Z,100864.06
2023-03-02T13:24:13.968Z,100866.78
2023-03-02T13:26:40.508Z,100867.19
2023-03-02T13:29:06.968Z,100854.72
2023-03-02T13:31:33.365Z,100852.50
2023-03-02T13:33:59.781Z,100864.09
2023-03-02T13:36:26.105Z,100855.34
2023-03-02T13:38:52.418Z,100845.81
2023-03-02T13:41:18.795Z,100848.25
2023-03-02T13:43:45.140Z,100841.22
2023-03-02T13:46:11.534Z,100849.72
2023-03-02T13:48:37.864Z,100843.50
2023-03-02T13:51:04.446Z,100836.97
2023-03-02T13:53:30.808Z,100842.44
2023-03-02T13:55:57.105Z,100842.56
2023-03-02T13:58:23.495Z,100840.87
2023-03-02T14:00:49.904Z,100840.37
2023-03-02T14:03:16.236Z,100835.31
2023-03-02T14:05:42.563Z,100831.19
2023-03-02T14:08:08.999Z,100837.94
2023-03-02T14:10:35.360Z,100836.91
2023-03-02T14:13:01.729Z,100836.06
2023-03-02T14:15:28.095Z,100824.81
2023-03-02T14:17:54.484Z,100826.81
2023-03-02T14:20:20.833Z,100824.13
2023-03-02T14:22:47.195Z,100818.59
2023-03-02T14:25:13.566Z,100825.12
2023-03-02T14:27:39.962Z,100824.78
2023-03-02T14:30:06.283Z,100827.09
2023-03-02T14:32:32.713Z,100810.59
2023-03-02T14:34:59.136Z,100811.34
2023-03-02T14:37:25.450Z,100815.72
2023-03-02T14:39:54.219Z,100807.88
2023-03-02T14:42:21.533Z,100802.59
2023-03-02T14:44:47.899Z,100804.34
2023-03-02T14:47:16.618Z,100802.59
2023-03-02T14:49:42.947Z,100797.78
2023-03-02T14:52:09.348Z,100803.00
2023-03-02T14:54:35.662Z,100790.13
2023-03-02T14:57:02.107Z,100794.31
2023-03-02T14:59:28.444Z,100787.91
2023-03-02T15:01:57.546Z,100788.22
2023-03-02T15:04:24.535Z,100794.16
2023-03-02T15:06:50.890Z,100783.44
2023-03-02T15:09:17.579Z,100786.19
2023-03-02T15:11:43.921Z,100782.16
2023-03-02T15:14:10.265Z,100785.69
2023-03-02T15:16:36.614Z,100781.59
2023-03-02T15:19:03.484Z,100776.53
2023-03-02T15:21:29.896Z,100781.06
2023-03-02T15:23:56.305Z,100772.97
2023-03-02T15:26:22.739Z,100782.41
2023-03-02T15:28:49.073Z,100764.50
2023-03-02T15:31:15.472Z,100768.81
2023-03-02T15:33:41.945Z,100769.78
2023-03-02T15:36:08.331Z,100774.19
2023-03-02T15:38:35.856Z,100774.31
2023-03-02T15:41:02.162Z,100769.37
2023-03-02T15:43:28.502Z,100770.06
2023-03-02T15:45:54.845Z,100771.94
2023-03-02T15:48:21.165Z,100772.97
2023-03-02T15:50:47.485Z,100766.37
2023-03-02T15:53:13.804Z,100762.41
2023-03-02T15:55:40.123Z,100760.38
2023-03-02T15:58:08.295Z,100754.81
2023-03-02T16:00:37.848Z,100756.06
2023-03-02T16:03:04.919Z,100763.88
2023-03-02T16:05:34.342Z,100761.91
2023-03-02T16:08:00.735Z,100758.34
2023-03-02T16:10:30.177Z,100763.09
2023-03-02T16:12:56.500Z,100763.94
2023-03-02T16:15:22.812Z,100760.97
2023-03-02T16:17:49.201Z,100768.75
2023-03-02T16:20:15.523Z,100768.69
2023-03-02T16:22:41.885Z,100767.34
2023-03-02T16:25:08.197Z,100768.28
2023-03-02T16:27:34.504Z,100763.22
2023-03-02T16:30:00.825Z,100767.34
2023-03-02T16:32:27.194Z,100775.34
2023-03-02T16:34:53.547Z,100778.66
2023-03-02T16:37:19.884Z,100784.62
2023-03-02T16:39:58.384Z,100779.66
2023-03-02T16:42:24.797Z,100780.16
2023-03-02T16:44:51.216Z,100780.56
2023-03-02T16:47:17.583Z,100785.56
2023-03-02T16:49:43.921Z,100780.06
2023-03-02T16:52:10.341Z,100784.06
2023-03-02T16:54:36.649Z,100787.62
2023-03-02T16:57:04.905Z,100780.59
2023-03-02T16:59:31.473Z,100787.19
2023-03-02T17:02:00.891Z,100789.87
2023-03-02T17:04:27.283Z,100794.78
2023-03-02T17:07:01.440Z,100797.75
2023-03-02T17:09:28.395Z,100791.84
2023-03-02T17:11:54.784Z,100795.03
2023-03-02T17:14:21.173Z,100797.13
2023-03-02T17:16:47.539Z,100807.41
2023-03-02T17:19:13.866Z,100808.09
2023-03-02T17:21:41.897Z,100802.31
2023-03-02T17:24:08.234Z,100803.16
2023-03-02T17:26:34.602Z,100811.19
2023-03-02T17:29:00.961Z,100811.00
2023-03-02T17:31:27.263Z,100802.78
2023-03-02T17:33:53.623Z,100808.06
2023-03-02T17:36:19.941Z,100808.72
2023-03-02T17:38:46.338Z,100803.72
2023-03-02T17:41:12.716Z,100799.28
2023-03-02T17:43:39.069Z,100813.69
2023-03-02T17:46:05.765Z,100813.44
2023-03-02T17:48:32.146Z,100808.28
2023-03-02T17:50:58.481Z,100808.25
2023-03-02T17:53:24.790Z,100804.72
2023-03-02T17:55:51.121Z,100801.16
2023-03-02T17:58:18.886Z,100807.81
2023-03-02T18:00:45.222Z,100813.97
2023-03-02T18:03:11.579Z,100808.69
2023-03-02T18:05:39.849Z,100816.69
2023-03-02T18:08:06.147Z,100817.81
2023-03-02T18:10:32.441Z,100820.88
2023-03-02T18:12:58.750Z,100820.59
2023-03-02T18:15:27.234Z,100816.78
2023-03-02T18:17:53.565Z,100829.47
2023-03-02T18:20:19.899Z,100825.06
2023-03-02T18:22:46.211Z,100818.75
2023-03-02T18:25:12.535Z,100831.97
2023-03-02T18:27:38.903Z,100829.25
2023-03-02T18:30:05.221Z,100836.69
2023-03-02T18:32:31.605Z,100842.47
2023-03-02T18:34:57.930Z,100843.03
2023-03-02T18:37:24.270Z,100848.25
2023-03-02T18:39:50.624Z,100850.75
2023-03-02T18:42:16.928Z,100845.25
2023-03-02T18:44:43.286Z,100848.53
2023-03-02T18:47:09.631Z,100853.22
2023-03-02T18:49:38.471Z,100847.69
2023-03-02T18:52:06.959Z,100858.97
2023-03-02T18:54:33.281Z,100859.53
2023-03-02T18:57:00.101Z,100858.72
2023-03-02T18:59:26.450Z,100858.41
2023-03-02T19:01:52.762Z,100854.53
2023-03-02T19:04:19.776Z,100859.19
2023-03-02T19:06:46.113Z,100864.66
2023-03-02T19:09:12.458Z,100864.63
2023-03-02T19:11:38.841Z,100867.97
2023-03-02T19:14:05.151Z,100870.13
2023-03-02T19:16:31.531Z,100871.97
2023-03-02T19:18:57.926Z,100877.97
2023-03-02T19:21:24.233Z,100872.81
2023-03-02T19:23:50.599Z,100875.34
2023-03-02T19:26:16.961Z,100878.13
2023-03-02T19:28:43.319Z,100890.44
2023-03-02T19:31:11.329Z,100882.44
2023-03-02T19:33:37.797Z,100891.69
2023-03-02T19:36:04.183Z,100888.44
2023-03-02T19:38:30.538Z,100876.84
2023-03-02T19:40:57.264Z,100887.41
2023-03-02T19:43:23.583Z,100884.41
2023-03-02T19:45:49.913Z,100884.97
2023-03-02T19:48:16.256Z,100879.19
2023-03-02T19:50:43.446Z,100891.31
2023-03-02T19:53:10.601Z,100887.72
2023-03-02T19:55:36.983Z,100888.53
2023-03-02T19:58:05.355Z,100887.72
2023-03-02T20:00:31.713Z,100894.81
2023-03-02T20:02:58.354Z,100897.28
2023-03-02T20:05:26.048Z,100895.06
2023-03-02T20:07:52.363Z,100891.19
2023-03-02T20:10:18.664Z,100901.28
2023-03-02T20:12:44.966Z,100896.03
2023-03-02T20:15:11.329Z,100902.34
2023-03-02T20:17:37.628Z,100901.50
2023-03-02T20:20:05.740Z,100898.56
2023-03-02T20:22:32.046Z,100907.75
2023-03-02T20:24:58.499Z,100899.16
2023-03-02T20:27:24.841Z,100906.88
2023-03-02T20:29:51.146Z,100902.22
2023-03-02T20:32:17.559Z,100908.66
2023-03-02T20:34:43.927Z,100906.28
2023-03-02T20:37:10.257Z,100915.09
2023-03-02T20:39:36.662Z,100920.00
2023-03-02T20:42:03.076Z,100920.56
2023-03-02T20:44:32.594Z,100914.13
2023-03-02T20:46:59.063Z,100922.69
2023-03-02T20:49:25.406Z,100921.59
2023-03-02T20:51:54.633Z,100914.69
2023-03-02T20:54:20.945Z,100912.91
2023-03-02T20:56:47.299Z,100916.00
2023-03-02T20:59:13.598Z,100927.66
2023-03-02T21:01:39.944Z,100923.16
2023-03-02T21:04:06.327Z,100916.75
2023-03-02T21:06:34.578Z,100923.62
2023-03-02T21:09:00.883Z,100918.78
2023-03-02T21:11:27.191Z,100910.31
2023-03-02T21:13:55.376Z,100908.66
2023-03-02T21:16:21.755Z,100912.13
2023-03-02T21:18:48.069Z,100900.69
2023-03-02T21:21:14.361Z,100907.84
2023-03-02T21:23:41.934Z,100910.09
2023-03-02T21:26:09.268Z,100915.56
2023-03-02T21:28:35.632Z,100910.31
2023-03-02T21:31:01.976Z,100917.34
2023-03-02T21:33:28.328Z,100907.41
2023-03-02T21:35:54.629Z,100904.06
2023-03-02T21:38:20.947Z,100910.06
2023-03-02T21:40:47.321Z,100902.66
2023-03-02T21:43:13.648Z,100909.47
2023-03-02T21:45:39.950Z,100908.25
2023-03-02T21:48:06.313Z,100908.69
2023-03-02T21:50:32.803Z,100909.78
2023-03-02T21:52:59.470Z,100916.75
2023-03-02T21:55:25.797Z,100907.91
2023-03-02T21:57:52.113Z,100913.28
2023-03-02T22:00:18.541Z,100909.66
2023-03-02T22:02:44.894Z,100910.72
2023-03-02T22:05:11.180Z,100901.19
2023-03-02T22:07:37.495Z,100907.97
2023-03-02T22:10:03.870Z,100902.38
2023-03-02T22:12:30.304Z,100913.62
2023-03-02T22:14:56.794Z,100903.72
2023-03-02T22:17:24.634Z,100903.56
2023-03-02T22:19:51.165Z,100908.72
2023-03-02T22:22:18.007Z,100908.37
2023-03-02T22:24:44.317Z,100912.34
2023-03-02T22:27:10.637Z,100923.38
2023-03-02T22:29:36.936Z,100930.47
2023-03-02T22:32:03.347Z,100923.31
2023-03-02T22:34:29.709Z,100927.66
2023-03-02T22:36:56.010Z,100931.50
2023-03-02T22:39:22.338Z,100930.41
2023-03-02T22:41:48.652Z,100920.94
2023-03-02T22:44:15.289Z,100921.78
2023-03-02T22:46:41.733Z,100923.31
2023-03-02T22:49:08.049Z,100919.09
2023-03-02T22:51:34.360Z,100917.19
2023-03-02T22:54:00.668Z,100916.09
2023-03-02T22:56:27.384Z,100918.56
2023-03-02T22:58:53.715Z,100915.84
2023-03-02T23:01:21.088Z,100908.19
2023-03-02T23:03:47.522Z,100906.38
2023-03-02T23:06:13.888Z,100913.84
2023-03-02T23:08:40.462Z,100916.97
2023-03-02T23:11:06.855Z,100923.59
2023-03-02T23:13:33.153Z,100919.34
2023-03-02T23:15:59.499Z,100925.03
2023-03-02T23:18:25.834Z,100926.47
2023-03-02T23:20:52.154Z,100921.53
2023-03-02T23:23:18.512Z,100923.22
2023-03-02T23:25:44.842Z,100932.41
2023-03-02T23:28:11.233Z,100928.66
2023-03-02T23:30:37.568Z,100926.81
2023-03-02T23:33:03.873Z,100927.56
2023-03-02T23:35:30.449Z,100926.03
2023-03-02T23:37:56.802Z,100917.00
2023-03-02T23:40:23.203Z,100918.09
2023-03-02T23:42:49.535Z,100915.59
2023-03-02T23:45:16.008Z,100920.81
2023-03-02T23:47:42.443Z,100924.66
2023-03-02T23:50:08.994Z,100925.28
2023-03-02T23:52:35.293Z,100918.28
2023-03-02T23:55:01.603Z,100921.78
2023-03-02T23:57:27.917Z,100911.75
2023-03-02T23:59:54.270Z,100916.34
